createdAt,value
2023-04-25T00:00:53.518Z,6.80
2023-04-25T00:03:20.949Z,6.80
2023-04-25T00:05:48.773Z,6.70
2023-04-25T00:08:15.804Z,6.70
2023-04-25T00:10:42.471Z,6.80
2023-04-25T00:13:09.244Z,6.70
2023-04-25T00:18:30.793Z,6.70
2023-04-25T00:20:57.485Z,6.70
2023-04-25T00:23:24.962Z,6.60
2023-04-25T00:25:51.836Z,6.60
2023-04-25T00:28:18.628Z,6.50
2023-04-25T00:30:45.488Z,6.50
2023-04-25T00:33:12.254Z,6.40
2023-04-25T00:35:39.329Z,6.40
2023-04-25T00:38:06.109Z,6.40
2023-04-25T00:40:32.889Z,6.30
2023-04-25T00:42:59.539Z,6.30
2023-04-25T00:45:29.130Z,6.20
2023-04-25T00:47:55.965Z,6.00
2023-04-25T00:50:22.816Z,6.00
2023-04-25T00:52:49.520Z,6.00
2023-04-25T00:55:16.950Z,5.90
2023-04-25T00:57:43.850Z,5.90
2023-04-25T01:00:11.892Z,5.90
2023-04-25T01:02:38.817Z,5.80
2023-04-25T01:05:05.961Z,5.70
2023-04-25T01:07:32.647Z,5.60
2023-04-25T01:09:59.334Z,5.50
2023-04-25T01:12:26.026Z,5.50
2023-04-25T01:14:53.944Z,5.50
2023-04-25T01:17:20.798Z,5.50
2023-04-25T01:19:49.284Z,5.40
2023-04-25T01:22:16.025Z,5.40
2023-04-25T01:24:42.784Z,5.40
2023-04-25T01:27:09.533Z,5.30
2023-04-25T01:29:36.448Z,5.30
2023-04-25T01:32:04.138Z,5.30
2023-04-25T01:34:30.899Z,5.30
2023-04-25T01:36:57.632Z,5.30
2023-04-25T01:39:24.307Z,5.30
2023-04-25T01:41:51.040Z,5.30
2023-04-25T01:44:17.860Z,5.30
2023-04-25T01:46:44.758Z,5.20
2023-04-25T01:49:11.485Z,5.20
2023-04-25T01:51:38.146Z,5.20
2023-04-25T01:54:04.934Z,5.10
2023-04-25T01:56:32.736Z,5.10
2023-04-25T01:58:59.488Z,5.10
2023-04-25T02:01:26.250Z,5.10
2023-04-25T02:03:53.249Z,5.00
2023-04-25T02:06:20.336Z,5.00
2023-04-25T02:08:47.051Z,5.00
2023-04-25T02:11:13.799Z,5.00
2023-04-25T02:13:40.629Z,5.00
2023-04-25T02:16:07.501Z,4.90
2023-04-25T02:18:34.325Z,4.90
2023-04-25T02:21:02.235Z,4.80
2023-04-25T02:23:29.546Z,4.80
2023-04-25T02:25:57.094Z,4.80
2023-04-25T02:28:24.953Z,4.80
2023-04-25T02:30:51.639Z,4.80
2023-04-25T02:33:18.548Z,4.80
2023-04-25T02:35:45.385Z,4.70
2023-04-25T02:38:12.053Z,4.70
2023-04-25T02:40:38.814Z,4.70
2023-04-25T02:43:05.719Z,4.60
2023-04-25T02:45:32.366Z,4.60
2023-04-25T02:47:59.124Z,4.50
2023-04-25T02:50:25.881Z,4.60
2023-04-25T02:52:52.566Z,4.60
2023-04-25T02:55:19.275Z,4.60
2023-04-25T02:57:46.051Z,4.60
2023-04-25T03:00:15.250Z,4.60
2023-04-25T03:02:42.091Z,4.50
2023-04-25T03:05:09.006Z,4.50
2023-04-25T03:07:35.671Z,4.50
2023-04-25T03:10:02.361Z,4.40
2023-04-25T03:12:29.045Z,4.40
2023-04-25T03:14:55.709Z,4.40
2023-04-25T03:17:22.395Z,4.40
2023-04-25T03:19:49.126Z,4.40
2023-04-25T03:22:15.895Z,4.30
2023-04-25T03:24:42.598Z,4.30
2023-04-25T03:27:09.445Z,4.30
2023-04-25T03:29:36.481Z,4.20
2023-04-25T03:32:03.200Z,4.20
2023-04-25T03:34:29.987Z,4.20
2023-04-25T03:36:56.664Z,4.20
2023-04-25T03:39:23.374Z,4.20
2023-04-25T03:41:50.100Z,4.20
2023-04-25T03:44:16.741Z,4.20
2023-04-25T03:46:43.403Z,4.20
2023-04-25T03:49:10.169Z,4.10
2023-04-25T03:51:37.169Z,4.10
2023-04-25T03:54:03.983Z,4.10
2023-04-25T03:56:31.137Z,4.00
2023-04-25T03:58:57.805Z,4.00
2023-04-25T04:01:24.583Z,4.00
2023-04-25T04:03:51.640Z,4.00
2023-04-25T04:06:18.875Z,4.00
2023-04-25T04:08:45.929Z,4.00
2023-04-25T04:11:12.643Z,4.00
2023-04-25T04:13:39.313Z,4.00
2023-04-25T04:16:06.349Z,4.00
2023-04-25T04:18:34.349Z,4.00
2023-04-25T04:21:01.105Z,3.90
2023-04-25T04:23:28.998Z,4.00
2023-04-25T04:25:56.128Z,3.90
2023-04-25T04:28:22.909Z,4.00
2023-04-25T04:30:52.108Z,3.90
2023-04-25T04:33:20.750Z,3.90
2023-04-25T04:35:47.897Z,3.90
2023-04-25T04:38:16.505Z,3.90
2023-04-25T04:40:47.162Z,3.80
2023-04-25T04:43:14.309Z,3.80
2023-04-25T04:45:41.354Z,3.80
2023-04-25T04:48:08.178Z,3.80
2023-04-25T04:50:35.014Z,3.90
2023-04-25T04:53:01.761Z,3.80
2023-04-25T04:55:28.449Z,3.90
2023-04-25T04:57:55.178Z,3.80
2023-04-25T05:00:22.795Z,3.80
2023-04-25T05:02:49.778Z,3.80
2023-04-25T05:05:16.595Z,3.80
2023-04-25T05:07:43.282Z,3.80
2023-04-25T05:10:10.138Z,3.80
2023-04-25T05:12:37.413Z,3.80
2023-04-25T05:15:04.258Z,3.80
2023-04-25T05:17:31.026Z,3.80
2023-04-25T05:19:58.075Z,3.80
2023-04-25T05:22:24.910Z,3.80
2023-04-25T05:24:54.482Z,3.80
2023-04-25T05:27:22.554Z,3.80
2023-04-25T05:29:49.280Z,3.80
2023-04-25T05:32:16.164Z,3.80
2023-04-25T05:34:43.147Z,3.80
2023-04-25T05:37:10.024Z,3.80
2023-04-25T05:39:36.704Z,3.80
2023-04-25T05:42:04.762Z,3.90
2023-04-25T05:44:32.284Z,3.90
2023-04-25T05:46:59.136Z,3.90
2023-04-25T05:49:25.896Z,4.00
2023-04-25T05:51:52.636Z,4.00
2023-04-25T05:54:19.312Z,3.90
2023-04-25T05:56:45.992Z,3.90
2023-04-25T05:59:12.760Z,3.90
2023-04-25T06:01:39.521Z,4.00
2023-04-25T06:04:06.569Z,4.10
2023-04-25T06:06:33.405Z,4.20
2023-04-25T06:09:00.122Z,4.20
2023-04-25T06:11:26.789Z,4.30
2023-04-25T06:13:53.808Z,4.30
2023-04-25T06:16:20.948Z,4.40
2023-04-25T06:18:47.673Z,4.40
2023-04-25T06:21:14.790Z,4.40
2023-04-25T06:23:41.469Z,4.60
2023-04-25T06:26:08.291Z,4.50
2023-04-25T06:28:35.185Z,4.60
2023-04-25T06:31:01.919Z,4.60
2023-04-25T06:33:28.609Z,4.60
2023-04-25T06:35:55.340Z,4.70
2023-04-25T06:38:22.089Z,4.70
2023-04-25T06:40:48.804Z,4.70
2023-04-25T06:43:15.602Z,4.70
2023-04-25T06:45:44.081Z,4.80
2023-04-25T06:48:11.582Z,4.80
2023-04-25T06:50:38.261Z,4.80
2023-04-25T06:53:12.142Z,4.80
2023-04-25T06:55:39.269Z,4.90
2023-04-25T06:58:05.967Z,4.90
2023-04-25T07:00:33.360Z,4.90
2023-04-25T07:03:00.200Z,5.00
2023-04-25T07:05:27.174Z,5.10
2023-04-25T07:07:53.907Z,5.10
2023-04-25T07:10:22.318Z,5.10
2023-04-25T07:12:49.084Z,5.20
2023-04-25T07:15:15.857Z,5.20
2023-04-25T07:17:42.989Z,5.30
2023-04-25T07:20:10.950Z,5.40
2023-04-25T07:22:37.625Z,5.50
2023-04-25T07:25:05.403Z,5.50
2023-04-25T07:27:32.298Z,5.50
2023-04-25T07:29:59.051Z,5.50
2023-04-25T07:32:26.692Z,5.60
2023-04-25T07:34:53.626Z,5.60
2023-04-25T07:37:20.437Z,5.60
2023-04-25T07:39:47.839Z,5.60
2023-04-25T07:42:14.652Z,5.70
2023-04-25T07:44:42.128Z,5.70
2023-04-25T07:47:08.991Z,5.70
2023-04-25T07:49:36.561Z,5.80
2023-04-25T07:52:04.007Z,5.90
2023-04-25T07:54:30.866Z,5.90
2023-04-25T07:56:57.551Z,6.00
2023-04-25T07:59:24.438Z,6.00
2023-04-25T08:01:51.486Z,6.10
2023-04-25T08:04:18.358Z,6.10
2023-04-25T08:06:46.474Z,6.20
2023-04-25T08:09:13.230Z,6.20
2023-04-25T08:11:40.008Z,6.20
2023-04-25T08:14:06.874Z,6.30
2023-04-25T08:16:33.829Z,6.40
2023-04-25T08:19:01.102Z,6.40
2023-04-25T08:21:30.584Z,6.50
2023-04-25T08:23:58.702Z,6.50
2023-04-25T08:26:26.338Z,6.60
2023-04-25T08:28:53.369Z,6.60
2023-04-25T08:31:20.399Z,6.70
2023-04-25T08:33:47.395Z,6.80
2023-04-25T08:36:17.290Z,6.90
2023-04-25T08:38:48.614Z,6.90
2023-04-25T08:41:16.257Z,6.90
2023-04-25T08:43:43.786Z,7.00
2023-04-25T08:46:10.630Z,7.10
2023-04-25T08:48:37.375Z,7.10
2023-04-25T08:51:04.782Z,7.20
2023-04-25T08:53:33.918Z,7.20
2023-04-25T08:56:02.751Z,7.20
2023-04-25T08:58:29.750Z,7.30
2023-04-25T09:00:56.557Z,7.40
2023-04-25T09:03:23.631Z,7.50
2023-04-25T09:05:51.186Z,7.50
2023-04-25T09:08:18.338Z,7.50
2023-04-25T09:10:45.096Z,7.60
2023-04-25T09:13:16.121Z,7.80
2023-04-25T09:15:53.091Z,7.90
2023-04-25T09:18:33.060Z,7.90
2023-04-25T09:21:12.966Z,8.00
2023-04-25T09:23:51.011Z,8.10
2023-04-25T09:26:18.901Z,8.10
2023-04-25T09:28:46.793Z,8.20
2023-04-25T09:31:13.604Z,8.20
2023-04-25T09:33:42.058Z,8.30
2023-04-25T09:36:09.849Z,8.40
2023-04-25T09:38:46.350Z,8.50
2023-04-25T09:41:13.450Z,8.80
2023-04-25T09:43:40.510Z,9.00
2023-04-25T09:46:12.377Z,9.40
2023-04-25T09:48:39.388Z,9.50
2023-04-25T09:51:09.853Z,9.90
2023-04-25T09:53:41.040Z,10.30
2023-04-25T09:56:09.223Z,10.70
2023-04-25T09:58:36.790Z,11.10
2023-04-25T10:01:06.050Z,11.30
2023-04-25T10:03:34.117Z,11.40
2023-04-25T10:06:02.137Z,11.70
2023-04-25T10:08:38.135Z,11.80
2023-04-25T10:11:08.888Z,12.20
2023-04-25T10:13:36.500Z,12.60
2023-04-25T10:16:04.941Z,12.40
2023-04-25T10:18:32.833Z,12.60
2023-04-25T10:21:03.260Z,12.70
2023-04-25T10:23:33.180Z,12.90
2023-04-25T10:25:59.929Z,12.70
2023-04-25T10:28:26.688Z,12.70
2023-04-25T10:31:06.935Z,12.50
2023-04-25T10:33:40.359Z,12.20
2023-04-25T10:36:28.455Z,12.00
2023-04-25T10:38:55.409Z,11.80
2023-04-25T10:41:23.842Z,11.60
2023-04-25T10:43:51.863Z,11.10
2023-04-25T10:46:20.514Z,10.90
2023-04-25T10:48:48.986Z,10.70
2023-04-25T10:51:29.506Z,10.40
2023-04-25T10:53:59.441Z,10.20
2023-04-25T10:56:33.437Z,10.10
2023-04-25T10:59:16.520Z,10.00
2023-04-25T11:01:48.042Z,9.80
2023-04-25T11:04:24.076Z,9.90
2023-04-25T11:07:05.441Z,10.10
2023-04-25T11:09:51.277Z,10.30
2023-04-25T11:12:18.638Z,10.30
2023-04-25T11:14:45.422Z,10.20
2023-04-25T11:17:12.483Z,10.30
2023-04-25T11:19:39.454Z,10.30
2023-04-25T11:22:07.064Z,10.40
2023-04-25T11:24:37.946Z,10.50
2023-04-25T11:27:05.019Z,10.50
2023-04-25T11:29:32.745Z,10.50
2023-04-25T11:31:59.649Z,10.50
2023-04-25T11:34:27.020Z,10.60
2023-04-25T11:36:54.331Z,10.70
2023-04-25T11:39:21.159Z,10.80
2023-04-25T11:41:48.246Z,10.80
2023-04-25T11:44:18.277Z,10.70
2023-04-25T11:46:45.610Z,10.90
2023-04-25T11:49:12.668Z,10.90
2023-04-25T11:51:41.021Z,10.80
2023-04-25T11:54:07.924Z,10.70
2023-04-25T11:56:34.634Z,10.80
2023-04-25T11:59:05.391Z,10.90
2023-04-25T12:01:35.743Z,11.00
2023-04-25T12:04:16.558Z,11.10
2023-04-25T12:06:45.124Z,10.90
2023-04-25T12:09:14.162Z,10.80
2023-04-25T12:11:47.845Z,10.80
2023-04-25T12:14:42.366Z,10.80
2023-04-25T12:17:10.727Z,10.80
2023-04-25T12:19:38.256Z,10.80
2023-04-25T12:22:09.104Z,10.90
2023-04-25T12:24:38.783Z,11.00
2023-04-25T12:27:07.083Z,11.10
2023-04-25T12:29:48.847Z,11.40
2023-04-25T12:32:16.966Z,11.70
2023-04-25T12:34:43.756Z,11.70
2023-04-25T12:37:10.643Z,11.60
2023-04-25T12:39:37.553Z,11.50
2023-04-25T12:42:06.199Z,11.50
2023-04-25T12:44:33.684Z,11.40
2023-04-25T12:47:01.111Z,11.40
2023-04-25T12:49:28.032Z,11.40
2023-04-25T12:51:54.809Z,11.40
2023-04-25T12:54:21.688Z,11.30
2023-04-25T12:56:48.896Z,11.20
2023-04-25T12:59:16.402Z,11.30
2023-04-25T13:01:43.819Z,11.30
2023-04-25T13:04:10.965Z,11.40
2023-04-25T13:06:37.826Z,11.40
2023-04-25T13:09:04.641Z,11.40
2023-04-25T13:11:31.822Z,11.40
2023-04-25T13:13:58.673Z,11.50
2023-04-25T13:16:25.472Z,11.60
2023-04-25T13:18:52.225Z,11.70
2023-04-25T13:21:18.949Z,11.80
2023-04-25T13:23:47.536Z,11.80
2023-04-25T13:26:14.230Z,11.80
2023-04-25T13:28:43.620Z,11.80
2023-04-25T13:31:11.609Z,12.00
2023-04-25T13:33:38.277Z,12.00
2023-04-25T13:36:05.049Z,12.00
2023-04-25T13:38:31.749Z,12.00
2023-04-25T13:40:58.516Z,12.00
2023-04-25T13:43:25.385Z,12.00
2023-04-25T13:45:52.683Z,11.90
2023-04-25T13:48:19.916Z,11.90
2023-04-25T13:50:47.027Z,11.90
2023-04-25T13:53:13.860Z,12.00
2023-04-25T13:55:40.632Z,12.00
2023-04-25T13:58:11.043Z,12.00
2023-04-25T14:00:40.274Z,12.00
2023-04-25T14:03:08.841Z,12.00
2023-04-25T14:05:40.057Z,12.10
2023-04-25T14:08:10.561Z,12.30
2023-04-25T14:10:37.455Z,12.50
2023-04-25T14:13:04.593Z,12.40
2023-04-25T14:15:32.992Z,12.40
2023-04-25T14:18:00.412Z,12.30
2023-04-25T14:20:34.792Z,12.30
2023-04-25T14:23:01.616Z,12.30
2023-04-25T14:25:28.716Z,12.20
2023-04-25T14:27:55.525Z,12.30
2023-04-25T14:30:22.374Z,12.20
2023-04-25T14:32:52.036Z,12.20
2023-04-25T14:35:18.870Z,12.10
2023-04-25T14:37:45.613Z,12.10
2023-04-25T14:40:13.976Z,12.00
2023-04-25T14:42:40.964Z,11.90
2023-04-25T14:45:08.421Z,11.90
2023-04-25T14:47:37.070Z,11.80
2023-04-25T14:50:04.046Z,11.90
2023-04-25T14:52:31.805Z,12.00
2023-04-25T14:55:00.982Z,12.10
2023-04-25T14:57:27.783Z,12.10
2023-04-25T14:59:54.488Z,12.30
2023-04-25T15:02:21.458Z,12.40
2023-04-25T15:04:48.752Z,12.50
2023-04-25T15:07:18.264Z,12.70
2023-04-25T15:09:45.398Z,13.30
2023-04-25T15:12:12.562Z,14.00
2023-04-25T15:14:39.495Z,15.00
2023-04-25T15:19:46.301Z,15.30
2023-04-25T15:22:13.124Z,14.80
2023-04-25T15:24:39.850Z,14.60
2023-04-25T15:27:07.242Z,14.30
2023-04-25T15:29:34.048Z,14.00
2023-04-25T15:32:00.868Z,13.70
2023-04-25T15:34:27.883Z,13.60
2023-04-25T15:36:54.738Z,13.60
2023-04-25T15:39:21.684Z,13.60
2023-04-25T15:41:48.614Z,13.40
2023-04-25T15:44:15.470Z,13.30
2023-04-25T15:46:42.263Z,13.40
2023-04-25T15:49:09.458Z,13.90
2023-04-25T15:51:36.613Z,15.10
2023-04-25T15:54:04.058Z,16.20
2023-04-25T15:56:30.834Z,17.00
2023-04-25T15:58:57.726Z,16.90
2023-04-25T16:01:26.182Z,16.40
2023-04-25T16:03:53.518Z,15.90
2023-04-25T16:06:20.581Z,15.30
2023-04-25T16:08:47.294Z,14.80
2023-04-25T16:11:14.877Z,14.50
2023-04-25T16:13:41.788Z,14.20
2023-04-25T16:16:08.737Z,13.80
2023-04-25T16:18:35.774Z,13.60
2023-04-25T16:21:02.648Z,13.40
2023-04-25T16:23:29.920Z,13.30
2023-04-25T16:25:56.794Z,13.10
2023-04-25T16:28:23.736Z,13.00
2023-04-25T16:30:50.449Z,12.90
2023-04-25T16:33:17.470Z,12.80
2023-04-25T16:35:44.501Z,12.80
2023-04-25T16:38:11.218Z,12.90
2023-04-25T16:40:37.971Z,12.90
2023-04-25T16:43:04.696Z,13.00
2023-04-25T16:45:31.496Z,13.10
2023-04-25T16:47:58.649Z,13.10
2023-04-25T16:50:25.507Z,13.10
2023-04-25T16:52:52.329Z,13.10
2023-04-25T16:55:19.251Z,13.10
2023-04-25T16:57:46.129Z,13.10
2023-04-25T17:00:13.672Z,13.20
2023-04-25T17:02:40.659Z,13.30
2023-04-25T17:05:07.842Z,13.20
2023-04-25T17:07:34.591Z,13.30
2023-04-25T17:10:01.353Z,13.80
2023-04-25T17:12:28.104Z,14.40
2023-04-25T17:14:54.944Z,15.00
2023-04-25T17:17:21.732Z,15.60
2023-04-25T17:19:48.478Z,16.00
2023-04-25T17:22:15.262Z,16.30
2023-04-25T17:24:41.940Z,16.30
2023-04-25T17:27:08.697Z,16.50
2023-04-25T17:29:35.646Z,16.30
2023-04-25T17:32:02.733Z,15.70
2023-04-25T17:34:29.698Z,15.20
2023-04-25T17:36:56.436Z,14.70
2023-04-25T17:39:23.123Z,14.30
2023-04-25T17:41:50.008Z,13.90
2023-04-25T17:44:16.765Z,13.70
2023-04-25T17:46:44.913Z,13.50
2023-04-25T17:49:11.788Z,13.30
2023-04-25T17:51:38.608Z,13.10
2023-04-25T17:54:05.316Z,13.00
2023-04-25T17:56:33.962Z,12.80
2023-04-25T17:59:00.819Z,12.80
2023-04-25T18:01:27.812Z,12.70
2023-04-25T18:03:54.863Z,12.60
2023-04-25T18:06:21.777Z,12.50
2023-04-25T18:08:49.691Z,12.30
2023-04-25T18:11:16.751Z,12.20
2023-04-25T18:13:43.568Z,12.00
2023-04-25T18:16:10.419Z,12.00
2023-04-25T18:18:37.999Z,11.90
2023-04-25T18:21:07.588Z,11.80
2023-04-25T18:23:34.503Z,11.70
2023-04-25T18:26:02.261Z,11.50
2023-04-25T18:28:29.497Z,11.40
2023-04-25T18:30:56.804Z,11.30
2023-04-25T18:33:23.680Z,11.20
2023-04-25T18:35:58.680Z,11.00
2023-04-25T18:41:02.718Z,10.90
2023-04-25T18:43:37.135Z,10.90
2023-04-25T18:46:03.855Z,10.70
2023-04-25T18:48:30.934Z,10.60
2023-04-25T18:50:57.719Z,10.60
2023-04-25T18:53:24.580Z,10.50
2023-04-25T18:55:51.485Z,10.40
2023-04-25T18:58:18.225Z,10.40
2023-04-25T19:00:44.994Z,10.30
2023-04-25T19:03:12.564Z,10.30
2023-04-25T19:05:39.417Z,10.20
2023-04-25T19:08:06.422Z,10.10
2023-04-25T19:10:33.136Z,10.00
2023-04-25T19:12:59.915Z,9.90
2023-04-25T19:15:26.694Z,9.90
2023-04-25T19:17:53.646Z,9.80
2023-04-25T19:20:20.824Z,9.80
2023-04-25T19:22:48.384Z,9.70
2023-04-25T19:25:15.873Z,9.70
2023-04-25T19:27:42.588Z,9.70
2023-04-25T19:30:10.627Z,9.60
2023-04-25T19:32:40.612Z,9.60
2023-04-25T19:35:10.952Z,9.50
2023-04-25T19:37:39.069Z,9.40
2023-04-25T19:40:07.492Z,9.20
2023-04-25T19:42:34.282Z,9.20
2023-04-25T19:45:01.613Z,9.10
2023-04-25T19:47:28.771Z,9.00
2023-04-25T19:49:55.619Z,9.00
2023-04-25T19:52:22.368Z,8.90
2023-04-25T19:54:49.123Z,8.90
2023-04-25T19:57:16.339Z,8.90
2023-04-25T19:59:48.024Z,8.80
2023-04-25T20:02:16.105Z,8.90
2023-04-25T20:04:42.960Z,8.80
2023-04-25T20:07:09.656Z,8.90
2023-04-25T20:09:37.841Z,8.80
2023-04-25T20:12:04.678Z,8.80
2023-04-25T20:14:33.016Z,8.90
2023-04-25T20:16:59.944Z,8.80
2023-04-25T20:19:26.819Z,8.80
2023-04-25T20:21:53.583Z,8.80
2023-04-25T20:24:20.354Z,8.80
2023-04-25T20:26:47.245Z,8.80
2023-04-25T20:29:14.099Z,8.70
2023-04-25T20:31:41.166Z,8.70
2023-04-25T20:34:08.186Z,8.70
2023-04-25T20:36:35.237Z,8.70
2023-04-25T20:39:01.973Z,8.60
2023-04-25T20:41:28.668Z,8.60
2023-04-25T20:43:55.572Z,8.60
2023-04-25T20:46:22.415Z,8.60
2023-04-25T20:48:49.389Z,8.50
2023-04-25T20:51:16.680Z,8.50
2023-04-25T20:53:43.392Z,8.50
2023-04-25T20:56:11.012Z,8.40
2023-04-25T20:58:37.814Z,8.40
2023-04-25T21:01:06.316Z,8.40
2023-04-25T21:03:33.819Z,8.30
2023-04-25T21:06:01.609Z,8.30
2023-04-25T21:08:28.423Z,8.20
2023-04-25T21:10:55.121Z,8.20
2023-04-25T21:13:21.793Z,8.20
2023-04-25T21:15:48.484Z,8.10
2023-04-25T21:18:15.339Z,8.10
2023-04-25T21:20:42.261Z,8.00
2023-04-25T21:23:08.959Z,8.00
2023-04-25T21:25:35.913Z,8.00
2023-04-25T21:28:03.347Z,8.00
2023-04-25T21:30:30.858Z,8.00
2023-04-25T21:32:57.853Z,8.00
2023-04-25T21:35:24.868Z,8.00
2023-04-25T21:37:51.799Z,7.90
2023-04-25T21:40:18.826Z,7.90
2023-04-25T21:42:49.904Z,7.90
2023-04-25T21:45:16.836Z,7.90
2023-04-25T21:47:46.499Z,7.80
2023-04-25T21:50:16.666Z,7.80
2023-04-25T21:52:43.526Z,7.80
2023-04-25T21:55:11.680Z,7.70
2023-04-25T21:57:38.581Z,7.70
2023-04-25T22:00:13.654Z,7.70
2023-04-25T22:02:40.449Z,7.60
2023-04-25T22:05:07.796Z,7.60
2023-04-25T22:07:34.661Z,7.60
2023-04-25T22:10:01.470Z,7.60
2023-04-25T22:12:28.573Z,7.60
2023-04-25T22:14:55.424Z,7.60
2023-04-25T22:17:25.857Z,7.50
2023-04-25T22:19:52.871Z,7.50
2023-04-25T22:22:19.572Z,7.50
2023-04-25T22:24:49.665Z,7.50
2023-04-25T22:27:16.822Z,7.50
2023-04-25T22:29:43.509Z,7.40
2023-04-25T22:32:10.196Z,7.40
2023-04-25T22:34:37.001Z,7.40
2023-04-25T22:37:04.732Z,7.40
2023-04-25T22:39:31.524Z,7.40
2023-04-25T22:41:58.411Z,7.40
2023-04-25T22:44:25.226Z,7.40
2023-04-25T22:46:52.012Z,7.30
2023-04-25T22:49:18.942Z,7.30
2023-04-25T22:51:45.945Z,7.20
2023-04-25T22:54:12.768Z,7.20
2023-04-25T22:56:39.493Z,7.10
2023-04-25T22:59:06.546Z,7.10
2023-04-25T23:01:33.405Z,7.10
2023-04-25T23:04:00.385Z,7.10
2023-04-25T23:06:27.991Z,7.00
2023-04-25T23:08:54.846Z,7.00
2023-04-25T23:11:22.379Z,7.00
2023-04-25T23:13:49.182Z,7.00
2023-04-25T23:16:16.111Z,7.00
2023-04-25T23:18:42.928Z,6.90
2023-04-25T23:21:10.070Z,6.80
2023-04-25T23:23:37.022Z,6.80
2023-04-25T23:26:24.611Z,6.80
2023-04-25T23:28:51.749Z,6.70
2023-04-25T23:31:18.725Z,6.70
2023-04-25T23:33:45.798Z,6.70
2023-04-25T23:36:21.991Z,6.60
2023-04-25T23:38:50.694Z,6.60
2023-04-25T23:41:18.123Z,6.60
2023-04-25T23:43:44.917Z,6.50
2023-04-25T23:46:12.539Z,6.50
2023-04-25T23:48:39.319Z,6.50
2023-04-25T23:51:06.092Z,6.60
2023-04-25T23:53:32.828Z,6.50
2023-04-25T23:55:59.541Z,6.50
2023-04-25T23:58:26.207Z,6.50
